createdAt,value
2023-08-30T00:01:03.380Z,101001.25
2023-08-30T00:03:30.008Z,100996.78
2023-08-30T00:05:56.619Z,100994.06
2023-08-30T00:08:23.245Z,100990.47
2023-08-30T00:10:50.205Z,100986.03
2023-08-30T00:13:16.940Z,100977.84
2023-08-30T00:15:43.402Z,100976.09
2023-08-30T00:18:10.466Z,100972.50
2023-08-30T00:20:37.203Z,100968.00
2023-08-30T00:23:04.429Z,100969.75
2023-08-30T00:25:30.956Z,100965.25
2023-08-30T00:27:57.430Z,100971.75
2023-08-30T00:30:23.922Z,100969.13
2023-08-30T00:32:50.406Z,100971.88
2023-08-30T00:35:16.921Z,100968.25
2023-08-30T00:37:43.373Z,100964.66
2023-08-30T00:40:10.106Z,100963.81
2023-08-30T00:42:36.662Z,100951.16
2023-08-30T00:45:03.529Z,100957.50
2023-08-30T00:47:30.975Z,100953.03
2023-08-30T00:49:57.497Z,100948.56
2023-08-30T00:52:23.936Z,100947.69
2023-08-30T00:54:50.683Z,100947.69
2023-08-30T00:57:17.375Z,100939.66
2023-08-30T00:59:43.783Z,100945.13
2023-08-30T01:02:10.495Z,100944.25
2023-08-30T01:04:36.995Z,100943.38
2023-08-30T01:07:03.612Z,100937.06
2023-08-30T01:09:30.111Z,100944.38
2023-08-30T01:12:11.906Z,100943.50
2023-08-30T01:14:58.045Z,100940.78
2023-08-30T01:17:24.982Z,100938.03
2023-08-30T01:20:15.203Z,100944.53
2023-08-30T01:22:58.759Z,100944.53
2023-08-30T01:25:44.523Z,100949.13
2023-08-30T01:28:11.925Z,100945.50
2023-08-30T01:30:42.286Z,100943.78
2023-08-30T01:33:10.069Z,100936.47
2023-08-30T01:35:38.289Z,100948.25
2023-08-30T01:38:06.197Z,100934.72
2023-08-30T01:40:37.780Z,100931.16
2023-08-30T01:43:06.888Z,100930.13
2023-08-30T01:45:35.894Z,100929.41
2023-08-30T01:48:04.634Z,100926.69
2023-08-30T01:50:32.052Z,100925.81
2023-08-30T01:52:58.901Z,100921.22
2023-08-30T01:55:27.717Z,100913.03
2023-08-30T01:57:54.208Z,100913.16
2023-08-30T02:00:20.689Z,100909.56
2023-08-30T02:02:48.943Z,100912.28
2023-08-30T02:05:15.502Z,100909.56
2023-08-30T02:07:59.511Z,100916.03
2023-08-30T02:10:33.421Z,100913.31
2023-08-30T02:13:01.439Z,100912.44
2023-08-30T02:15:28.745Z,100914.31
2023-08-30T02:17:56.785Z,100918.88
2023-08-30T02:20:24.243Z,100909.84
2023-08-30T02:22:51.066Z,100910.69
2023-08-30T02:25:17.585Z,100904.38
2023-08-30T02:27:44.095Z,100903.50
2023-08-30T02:30:11.580Z,100906.22
2023-08-30T02:32:38.099Z,100908.97
2023-08-30T02:35:04.938Z,100899.94
2023-08-30T02:37:31.481Z,100896.34
2023-08-30T02:39:57.900Z,100895.47
2023-08-30T02:42:24.279Z,100886.41
2023-08-30T02:44:50.720Z,100881.94
2023-08-30T02:47:17.111Z,100882.81
2023-08-30T02:49:43.564Z,100893.72
2023-08-30T02:52:10.357Z,100884.56
2023-08-30T02:54:36.882Z,100881.06
2023-08-30T02:57:03.471Z,100881.06
2023-08-30T02:59:29.873Z,100872.88
2023-08-30T03:01:56.354Z,100865.72
2023-08-30T03:04:23.043Z,100856.66
2023-08-30T03:06:49.519Z,100853.94
2023-08-30T03:09:16.016Z,100846.63
2023-08-30T03:11:42.479Z,100855.69
2023-08-30T03:14:09.039Z,100846.63
2023-08-30T03:16:35.622Z,100848.47
2023-08-30T03:19:03.705Z,100855.81
2023-08-30T03:21:30.132Z,100840.41
2023-08-30T03:23:56.573Z,100843.16
2023-08-30T03:26:23.011Z,100845.88
2023-08-30T03:28:49.429Z,100833.25
2023-08-30T03:31:17.874Z,100838.72
2023-08-30T03:33:45.685Z,100826.06
2023-08-30T03:36:15.344Z,100831.53
2023-08-30T03:38:42.845Z,100826.06
2023-08-30T03:41:10.187Z,100827.06
2023-08-30T03:43:36.753Z,100821.59
2023-08-30T03:46:07.008Z,100817.13
2023-08-30T03:48:33.682Z,100809.97
2023-08-30T03:51:00.082Z,100807.25
2023-08-30T03:53:26.694Z,100801.91
2023-08-30T03:55:53.249Z,100802.78
2023-08-30T03:58:20.876Z,100802.78
2023-08-30T04:00:47.541Z,100800.16
2023-08-30T04:03:16.376Z,100804.78
2023-08-30T04:05:43.693Z,100797.59
2023-08-30T04:08:10.961Z,100793.00
2023-08-30T04:10:42.178Z,100794.88
2023-08-30T04:13:09.990Z,100781.22
2023-08-30T04:15:37.801Z,100785.81
2023-08-30T04:18:05.417Z,100789.53
2023-08-30T04:20:33.491Z,100789.69
2023-08-30T04:23:02.571Z,100786.09
2023-08-30T04:25:30.393Z,100791.53
2023-08-30T04:27:57.623Z,100797.00
2023-08-30T04:30:24.456Z,100788.94
2023-08-30T04:32:51.048Z,100790.81
2023-08-30T04:35:18.210Z,100785.34
2023-08-30T04:37:44.703Z,100786.38
2023-08-30T04:40:11.410Z,100783.63
2023-08-30T04:42:38.900Z,100787.38
2023-08-30T04:45:05.887Z,100781.91
2023-08-30T04:47:33.414Z,100783.75
2023-08-30T04:50:00.615Z,100776.56
2023-08-30T04:52:27.133Z,100774.72
2023-08-30T04:54:53.680Z,100771.13
2023-08-30T04:57:20.289Z,100773.00
2023-08-30T04:59:47.538Z,100769.41
2023-08-30T05:02:14.030Z,100769.41
2023-08-30T05:04:40.446Z,100767.69
2023-08-30T05:07:07.022Z,100755.91
2023-08-30T05:09:35.440Z,100755.03
2023-08-30T05:12:02.103Z,100750.44
2023-08-30T05:14:28.587Z,100747.88
2023-08-30T05:16:55.031Z,100739.69
2023-08-30T05:19:21.602Z,100739.69
2023-08-30T05:21:48.165Z,100739.81
2023-08-30T05:24:14.569Z,100740.69
2023-08-30T05:26:41.002Z,100733.47
2023-08-30T05:29:07.504Z,100734.34
2023-08-30T05:31:33.929Z,100735.22
2023-08-30T05:34:00.402Z,100739.81
2023-08-30T05:36:26.885Z,100738.94
2023-08-30T05:38:53.394Z,100732.63
2023-08-30T05:41:19.907Z,100738.94
2023-08-30T05:43:46.317Z,100731.75
2023-08-30T05:46:16.144Z,100743.53
2023-08-30T05:48:42.925Z,100746.25
2023-08-30T05:51:09.502Z,100743.53
2023-08-30T05:53:36.062Z,100737.19
2023-08-30T05:56:02.526Z,100733.63
2023-08-30T05:58:28.907Z,100740.97
2023-08-30T06:00:55.530Z,100756.28
2023-08-30T06:03:22.099Z,100753.56
2023-08-30T06:05:49.854Z,100745.38
2023-08-30T06:08:16.586Z,100748.13
2023-08-30T06:10:43.076Z,100756.28
2023-08-30T06:13:09.544Z,100745.38
2023-08-30T06:15:40.082Z,100749.84
2023-08-30T06:18:06.586Z,100743.53
2023-08-30T06:20:33.038Z,100736.22
2023-08-30T06:22:59.964Z,100734.47
2023-08-30T06:25:26.395Z,100720.84
2023-08-30T06:28:00.314Z,100713.69
2023-08-30T06:30:27.288Z,100708.22
2023-08-30T06:32:53.780Z,100709.09
2023-08-30T06:35:20.292Z,100708.22
2023-08-30T06:37:47.154Z,100724.59
2023-08-30T06:40:13.850Z,100721.88
2023-08-30T06:42:40.380Z,100719.13
2023-08-30T06:45:07.554Z,100728.31
2023-08-30T06:47:34.095Z,100732.91
2023-08-30T06:50:01.811Z,100721.97
2023-08-30T06:52:28.598Z,100722.84
2023-08-30T06:54:55.163Z,100716.53
2023-08-30T06:57:22.960Z,100714.78
2023-08-30T06:59:49.463Z,100715.66
2023-08-30T07:02:15.957Z,100710.22
2023-08-30T07:04:42.461Z,100701.16
2023-08-30T07:07:09.004Z,100700.31
2023-08-30T07:09:35.477Z,100692.13
2023-08-30T07:12:02.097Z,100697.59
2023-08-30T07:14:28.640Z,100700.31
2023-08-30T07:16:55.155Z,100697.59
2023-08-30T07:19:21.558Z,100685.81
2023-08-30T07:21:47.982Z,100692.13
2023-08-30T07:24:14.413Z,100689.41
2023-08-30T07:26:40.903Z,100691.97
2023-08-30T07:29:07.387Z,100688.38
2023-08-30T07:31:34.506Z,100680.34
2023-08-30T07:34:01.070Z,100685.66
2023-08-30T07:36:41.203Z,100682.06
2023-08-30T07:39:13.935Z,100682.06
2023-08-30T07:41:40.384Z,100676.59
2023-08-30T07:44:06.830Z,100665.69
2023-08-30T07:46:33.281Z,100669.28
2023-08-30T07:48:59.695Z,100664.69
2023-08-30T07:51:26.163Z,100655.66
2023-08-30T07:53:52.557Z,100662.84
2023-08-30T07:56:19.054Z,100643.75
2023-08-30T07:58:45.547Z,100647.47
2023-08-30T08:01:12.111Z,100649.34
2023-08-30T08:03:43.211Z,100646.59
2023-08-30T08:06:15.462Z,100643.75
2023-08-30T08:08:41.972Z,100648.50
2023-08-30T08:11:08.458Z,100639.28
2023-08-30T08:13:35.081Z,100642.88
2023-08-30T08:16:01.869Z,100635.56
2023-08-30T08:18:28.472Z,100626.38
2023-08-30T08:20:55.148Z,100622.63
2023-08-30T08:23:21.644Z,100615.31
2023-08-30T08:25:48.209Z,100612.59
2023-08-30T08:28:14.774Z,100616.19
2023-08-30T08:30:41.277Z,100618.03
2023-08-30T08:33:08.441Z,100611.72
2023-08-30T08:35:35.054Z,100620.78
2023-08-30T08:38:02.019Z,100619.78
2023-08-30T08:40:41.851Z,100619.78
2023-08-30T08:43:11.716Z,100620.66
2023-08-30T08:45:38.480Z,100616.94
2023-08-30T08:48:06.562Z,100613.34
2023-08-30T08:50:33.448Z,100611.59
2023-08-30T08:53:00.936Z,100616.94
2023-08-30T08:55:27.922Z,100617.91
2023-08-30T08:57:54.765Z,100609.75
2023-08-30T09:00:21.401Z,100604.28
2023-08-30T09:02:48.060Z,100609.75
2023-08-30T09:05:15.664Z,100611.47
2023-08-30T09:07:43.482Z,100605.16
2023-08-30T09:10:10.531Z,100599.69
2023-08-30T09:12:37.034Z,100597.84
2023-08-30T09:15:05.334Z,100595.09
2023-08-30T09:17:39.247Z,100599.69
2023-08-30T09:20:13.229Z,100600.56
2023-08-30T09:22:44.112Z,100597.84
2023-08-30T09:25:13.098Z,100591.34
2023-08-30T09:27:43.125Z,100585.88
2023-08-30T09:30:11.747Z,100588.63
2023-08-30T09:32:43.233Z,100588.63
2023-08-30T09:35:10.828Z,100589.50
2023-08-30T09:37:37.485Z,100582.16
2023-08-30T09:40:04.397Z,100591.22
2023-08-30T09:42:30.963Z,100583.91
2023-08-30T09:44:58.072Z,100580.16
2023-08-30T09:47:28.589Z,100575.56
2023-08-30T09:49:57.166Z,100572.69
2023-08-30T09:52:26.080Z,100573.56
2023-08-30T09:54:52.752Z,100566.25
2023-08-30T09:57:19.761Z,100569.81
2023-08-30T09:59:47.376Z,100569.81
2023-08-30T10:02:14.261Z,100561.78
2023-08-30T10:04:42.024Z,100563.38
2023-08-30T10:07:10.393Z,100561.50
2023-08-30T10:09:55.279Z,100570.56
2023-08-30T10:12:30.087Z,100568.69
2023-08-30T10:14:58.176Z,100576.88
2023-08-30T10:17:32.242Z,100576.72
2023-08-30T10:20:00.770Z,100572.28
2023-08-30T10:22:27.648Z,100573.00
2023-08-30T10:25:10.104Z,100570.13
2023-08-30T10:27:42.637Z,100569.84
2023-08-30T10:30:11.450Z,100572.44
2023-08-30T10:32:41.877Z,100583.63
2023-08-30T10:35:12.254Z,100570.66
2023-08-30T10:37:38.773Z,100585.75
2023-08-30T10:40:06.938Z,100582.06
2023-08-30T10:42:33.541Z,100588.97
2023-08-30T10:47:39.508Z,100583.03
2023-08-30T10:50:11.954Z,100583.28
2023-08-30T10:52:39.096Z,100586.47
2023-08-30T10:55:10.440Z,100591.88
2023-08-30T10:57:38.568Z,100592.88
2023-08-30T11:00:05.877Z,100590.28
2023-08-30T11:02:33.637Z,100596.88
2023-08-30T11:05:00.455Z,100589.78
2023-08-30T11:07:27.165Z,100596.41
2023-08-30T11:09:53.884Z,100595.84
2023-08-30T11:12:23.302Z,100595.28
2023-08-30T11:14:50.497Z,100610.81
2023-08-30T11:17:18.374Z,100607.38
2023-08-30T11:19:45.752Z,100612.16
2023-08-30T11:22:13.915Z,100613.16
2023-08-30T11:24:40.920Z,100611.41
2023-08-30T11:27:07.936Z,100614.16
2023-08-30T11:29:34.469Z,100611.41
2023-08-30T11:32:01.288Z,100613.16
2023-08-30T11:34:27.819Z,100614.16
2023-08-30T11:36:54.926Z,100608.84
2023-08-30T11:39:23.803Z,100614.31
2023-08-30T11:41:52.588Z,100610.81
2023-08-30T11:44:20.733Z,100609.75
2023-08-30T11:46:47.671Z,100607.78
2023-08-30T11:49:14.925Z,100599.25
2023-08-30T11:51:41.853Z,100597.19
2023-08-30T11:54:09.049Z,100601.47
2023-08-30T11:56:36.835Z,100600.53
2023-08-30T11:59:05.361Z,100601.97
2023-08-30T12:01:33.513Z,100606.75
2023-08-30T12:04:10.348Z,100610.19
2023-08-30T12:06:36.960Z,100600.97
2023-08-30T12:09:06.098Z,100601.53
2023-08-30T12:11:33.302Z,100605.25
2023-08-30T12:14:03.462Z,100606.94
2023-08-30T12:16:29.927Z,100598.75
2023-08-30T12:18:56.572Z,100604.94
2023-08-30T12:21:22.993Z,100602.69
2023-08-30T12:23:49.422Z,100608.97
2023-08-30T12:26:15.892Z,100619.59
2023-08-30T12:28:45.329Z,100622.81
2023-08-30T12:31:11.930Z,100614.34
2023-08-30T12:33:38.836Z,100613.78
2023-08-30T12:36:05.462Z,100623.09
2023-08-30T12:38:32.170Z,100612.72
2023-08-30T12:40:59.032Z,100612.66
2023-08-30T12:43:25.554Z,100617.94
2023-08-30T12:45:52.201Z,100620.78
2023-08-30T12:48:19.478Z,100626.47
2023-08-30T12:50:47.821Z,100620.72
2023-08-30T12:53:16.084Z,100630.19
2023-08-30T12:55:42.586Z,100635.88
2023-08-30T12:58:09.674Z,100630.09
2023-08-30T13:00:36.752Z,100628.69
2023-08-30T13:03:06.983Z,100635.44
2023-08-30T13:05:34.365Z,100633.06
2023-08-30T13:08:01.234Z,100635.53
2023-08-30T13:10:28.148Z,100633.56
2023-08-30T13:12:54.582Z,100637.94
2023-08-30T13:15:21.066Z,100634.78
2023-08-30T13:17:47.583Z,100643.63
2023-08-30T13:20:14.074Z,100639.47
2023-08-30T13:22:40.513Z,100641.66
2023-08-30T13:25:08.727Z,100645.28
2023-08-30T13:27:35.320Z,100641.78
2023-08-30T13:30:01.706Z,100638.47
2023-08-30T13:32:28.279Z,100647.88
2023-08-30T13:34:54.729Z,100648.19
2023-08-30T13:37:21.138Z,100654.84
2023-08-30T13:39:47.557Z,100656.84
2023-08-30T13:42:14.076Z,100654.28
2023-08-30T13:44:42.699Z,100660.75
2023-08-30T13:47:09.191Z,100662.63
2023-08-30T13:49:36.860Z,100652.97
2023-08-30T13:52:04.102Z,100657.41
2023-08-30T13:54:30.624Z,100660.31
2023-08-30T13:57:00.185Z,100659.56
2023-08-30T13:59:26.732Z,100660.88
2023-08-30T14:01:53.343Z,100669.53
2023-08-30T14:04:19.914Z,100675.31
2023-08-30T14:06:46.445Z,100678.50
2023-08-30T14:09:14.110Z,100683.41
2023-08-30T14:11:42.310Z,100698.38
2023-08-30T14:14:08.804Z,100699.56
2023-08-30T14:16:35.507Z,100698.88
2023-08-30T14:19:06.308Z,100702.91
2023-08-30T14:21:33.330Z,100716.72
2023-08-30T14:24:00.007Z,100713.28
2023-08-30T14:26:27.116Z,100718.03
2023-08-30T14:28:53.499Z,100720.06
2023-08-30T14:31:20.065Z,100712.00
2023-08-30T14:33:46.829Z,100719.34
2023-08-30T14:36:13.867Z,100716.78
2023-08-30T14:38:41.698Z,100726.97
2023-08-30T14:41:08.575Z,100728.16
2023-08-30T14:43:35.339Z,100730.03
2023-08-30T14:46:09.493Z,100734.78
2023-08-30T14:48:37.623Z,100730.50
2023-08-30T14:51:06.369Z,100731.63
2023-08-30T14:53:32.892Z,100726.16
2023-08-30T14:55:59.468Z,100726.16
2023-08-30T14:58:26.090Z,100724.44
2023-08-30T15:00:52.587Z,100727.31
2023-08-30T15:03:19.261Z,100740.13
2023-08-30T15:05:55.212Z,100733.97
2023-08-30T15:08:22.380Z,100738.25
2023-08-30T15:10:48.950Z,100734.81
2023-08-30T15:13:15.482Z,100732.22
2023-08-30T15:15:42.050Z,100727.63
2023-08-30T15:18:09.723Z,100737.69
2023-08-30T15:20:36.245Z,100746.91
2023-08-30T15:23:02.729Z,100756.13
2023-08-30T15:25:29.432Z,100755.41
2023-08-30T15:27:56.213Z,100756.56
2023-08-30T15:30:22.665Z,100761.88
2023-08-30T15:32:49.264Z,100754.97
2023-08-30T15:35:15.897Z,100751.78
2023-08-30T15:37:42.361Z,100749.47
2023-08-30T15:40:10.675Z,100757.22
2023-08-30T15:42:37.119Z,100749.91
2023-08-30T15:45:05.747Z,100746.28
2023-08-30T15:47:32.836Z,100743.38
2023-08-30T15:49:59.320Z,100741.69
2023-08-30T15:52:25.821Z,100744.44
2023-08-30T15:54:53.967Z,100737.22
2023-08-30T15:57:20.482Z,100737.34
2023-08-30T15:59:46.962Z,100732.91
2023-08-30T16:02:14.357Z,100739.53
2023-08-30T16:04:40.992Z,100731.50
2023-08-30T16:07:08.774Z,100740.00
2023-08-30T16:09:35.255Z,100740.84
2023-08-30T16:12:01.652Z,100735.53
2023-08-30T16:14:28.920Z,100746.59
2023-08-30T16:16:55.506Z,100735.81
2023-08-30T16:19:25.064Z,100744.16
2023-08-30T16:21:54.709Z,100749.78
2023-08-30T16:24:23.987Z,100742.59
2023-08-30T16:26:54.774Z,100743.59
2023-08-30T16:29:21.198Z,100748.19
2023-08-30T16:31:50.208Z,100754.69
2023-08-30T16:34:16.941Z,100745.75
2023-08-30T16:36:43.417Z,100751.22
2023-08-30T16:39:09.844Z,100756.69
2023-08-30T16:41:36.290Z,100755.00
2023-08-30T16:44:02.995Z,100753.25
2023-08-30T16:46:30.846Z,100755.13
2023-08-30T16:48:57.406Z,100757.16
2023-08-30T16:51:23.853Z,100760.00
2023-08-30T16:53:50.286Z,100757.38
2023-08-30T16:56:17.032Z,100755.69
2023-08-30T16:58:43.549Z,100756.69
2023-08-30T17:01:10.971Z,100752.22
2023-08-30T17:03:37.968Z,100755.97
2023-08-30T17:06:04.699Z,100753.25
2023-08-30T17:08:34.840Z,100758.84
2023-08-30T17:11:08.734Z,100758.84
2023-08-30T17:13:36.328Z,100752.69
2023-08-30T17:16:04.152Z,100754.53
2023-08-30T17:18:32.467Z,100759.28
2023-08-30T17:20:59.309Z,100765.78
2023-08-30T17:23:25.827Z,100760.44
2023-08-30T17:25:52.612Z,100769.63
2023-08-30T17:28:19.987Z,100772.38
2023-08-30T17:30:46.812Z,100772.53
2023-08-30T17:33:13.943Z,100778.88
2023-08-30T17:35:40.657Z,100778.00
2023-08-30T17:38:07.181Z,100780.84
2023-08-30T17:40:35.508Z,100779.13
2023-08-30T17:43:05.430Z,100783.59
2023-08-30T17:45:33.095Z,100788.34
2023-08-30T17:48:00.498Z,100788.34
2023-08-30T17:50:27.659Z,100789.34
2023-08-30T17:52:54.263Z,100796.69
2023-08-30T17:55:20.903Z,100798.72
2023-08-30T17:57:47.342Z,100804.19
2023-08-30T18:00:15.211Z,100802.44
2023-08-30T18:02:42.761Z,100800.00
2023-08-30T18:05:09.664Z,100800.88
2023-08-30T18:07:37.053Z,100801.00
2023-08-30T18:10:05.532Z,100804.72
2023-08-30T18:12:33.026Z,100810.34
2023-08-30T18:14:59.454Z,100815.94
2023-08-30T18:17:30.586Z,100805.00
2023-08-30T18:19:57.518Z,100805.19
2023-08-30T18:22:24.370Z,100804.44
2023-08-30T18:24:51.350Z,100804.44
2023-08-30T18:27:18.610Z,100802.72
2023-08-30T18:29:48.539Z,100802.00
2023-08-30T18:32:15.310Z,100802.16
2023-08-30T18:34:43.384Z,100808.63
2023-08-30T18:37:10.008Z,100818.69
2023-08-30T18:39:36.558Z,100826.88
2023-08-30T18:42:03.298Z,100827.00
2023-08-30T18:44:30.796Z,100833.50
2023-08-30T18:46:57.293Z,100828.16
2023-08-30T18:49:24.328Z,100836.34
2023-08-30T18:51:50.959Z,100832.91
2023-08-30T18:54:17.392Z,100839.38
2023-08-30T18:56:45.021Z,100834.91
2023-08-30T18:59:13.038Z,100839.50
2023-08-30T19:01:39.973Z,100836.94
2023-08-30T19:04:07.389Z,100851.56
2023-08-30T19:06:35.200Z,100857.16
2023-08-30T19:09:01.803Z,100859.06
2023-08-30T19:11:28.305Z,100861.91
2023-08-30T19:13:54.928Z,100864.78
2023-08-30T19:16:22.444Z,100863.06
2023-08-30T19:18:49.125Z,100869.53
2023-08-30T19:21:15.868Z,100869.66
2023-08-30T19:23:44.855Z,100871.56
2023-08-30T19:26:11.555Z,100874.28
2023-08-30T19:28:38.080Z,100878.13
2023-08-30T19:31:04.607Z,100879.16
2023-08-30T19:33:31.094Z,100879.28
2023-08-30T19:35:57.525Z,100867.50
2023-08-30T19:38:25.126Z,100877.53
2023-08-30T19:40:52.751Z,100878.56
2023-08-30T19:43:19.511Z,100860.44
2023-08-30T19:45:46.505Z,100876.84
2023-08-30T19:48:14.220Z,100881.56
2023-08-30T19:50:40.818Z,100882.56
2023-08-30T19:53:07.721Z,100875.38
2023-08-30T19:55:34.202Z,100879.97
2023-08-30T19:58:01.089Z,100881.84
2023-08-30T20:00:27.520Z,100885.59
2023-08-30T20:02:54.113Z,100892.03
2023-08-30T20:05:21.723Z,100893.03
2023-08-30T20:07:48.536Z,100901.22
2023-08-30T20:10:15.103Z,100899.50
2023-08-30T20:12:41.623Z,100903.25
2023-08-30T20:15:08.495Z,100905.19
2023-08-30T20:17:34.983Z,100907.06
2023-08-30T20:20:01.645Z,100907.94
2023-08-30T20:22:28.116Z,100900.00
2023-08-30T20:24:56.013Z,100896.28
2023-08-30T20:27:22.456Z,100891.81
2023-08-30T20:29:48.934Z,100891.09
2023-08-30T20:32:15.395Z,100891.09
2023-08-30T20:34:42.245Z,100887.50
2023-08-30T20:37:08.672Z,100889.38
2023-08-30T20:39:35.133Z,100891.38
2023-08-30T20:42:01.567Z,100894.13
2023-08-30T20:44:27.945Z,100889.66
2023-08-30T20:46:54.396Z,100900.56
2023-08-30T20:49:20.934Z,100897.09
2023-08-30T20:51:47.392Z,100899.81
2023-08-30T20:54:13.850Z,100898.13
2023-08-30T20:56:40.401Z,100899.97
2023-08-30T20:59:07.038Z,100903.69
2023-08-30T21:01:34.541Z,100907.28
2023-08-30T21:04:01.386Z,100903.84
2023-08-30T21:06:28.558Z,100903.84
2023-08-30T21:08:56.287Z,100902.97
2023-08-30T21:11:22.862Z,100893.06
2023-08-30T21:13:49.308Z,100896.78
2023-08-30T21:16:15.821Z,100885.88
2023-08-30T21:18:42.348Z,100886.00
2023-08-30T21:21:10.584Z,100886.00
2023-08-30T21:23:37.099Z,100887.00
2023-08-30T21:26:05.315Z,100885.28
2023-08-30T21:28:33.178Z,100886.28
2023-08-30T21:31:00.668Z,100882.69
2023-08-30T21:33:27.131Z,100882.81
2023-08-30T21:35:53.696Z,100881.94
2023-08-30T21:38:21.138Z,100894.72
2023-08-30T21:40:49.056Z,100877.50
2023-08-30T21:43:15.692Z,100897.59
2023-08-30T21:45:43.135Z,100884.94
2023-08-30T21:48:10.653Z,100901.31
2023-08-30T21:50:37.974Z,100894.13
2023-08-30T21:53:05.093Z,100898.75
2023-08-30T21:55:31.639Z,100902.47
2023-08-30T21:57:58.149Z,100906.19
2023-08-30T22:00:24.655Z,100899.88
2023-08-30T22:02:51.963Z,100908.19
2023-08-30T22:05:18.758Z,100908.31
2023-08-30T22:07:46.789Z,100911.91
2023-08-30T22:10:14.352Z,100915.63
2023-08-30T22:12:44.863Z,100923.13
2023-08-30T22:15:18.447Z,100922.13
2023-08-30T22:17:46.795Z,100923.97
2023-08-30T22:20:19.379Z,100925.97
2023-08-30T22:22:47.027Z,100923.22
2023-08-30T22:25:15.191Z,100920.66
2023-08-30T22:27:43.045Z,100918.91
2023-08-30T22:30:11.974Z,100925.38
2023-08-30T22:32:39.172Z,100919.03
2023-08-30T22:35:07.371Z,100915.59
2023-08-30T22:37:34.278Z,100918.31
2023-08-30T22:40:02.874Z,100912.00
2023-08-30T22:42:29.344Z,100913.84
2023-08-30T22:44:56.715Z,100916.72
2023-08-30T22:47:23.162Z,100911.28
2023-08-30T22:49:50.402Z,100913.25
2023-08-30T22:52:16.853Z,100917.72
2023-08-30T22:54:43.375Z,100915.13
2023-08-30T22:57:09.769Z,100908.94
2023-08-30T22:59:36.280Z,100910.81
2023-08-30T23:02:03.209Z,100908.94
2023-08-30T23:04:29.841Z,100906.34
2023-08-30T23:06:56.327Z,100906.34
2023-08-30T23:09:23.723Z,100907.34
2023-08-30T23:11:50.716Z,100911.06
2023-08-30T23:14:17.172Z,100917.50
2023-08-30T23:16:44.264Z,100906.59
2023-08-30T23:19:10.740Z,100908.47
2023-08-30T23:21:37.254Z,100909.47
2023-08-30T23:24:04.098Z,100906.88
2023-08-30T23:26:30.542Z,100908.72
2023-08-30T23:28:57.361Z,100916.03
2023-08-30T23:31:24.556Z,100919.66
2023-08-30T23:33:51.084Z,100908.88
2023-08-30T23:36:17.552Z,100915.31
2023-08-30T23:38:47.449Z,100903.53
2023-08-30T23:41:14.538Z,100908.13
2023-08-30T23:43:41.072Z,100915.44
2023-08-30T23:46:07.666Z,100910.16
2023-08-30T23:48:34.308Z,100905.69
2023-08-30T23:51:00.855Z,100908.41
2023-08-30T23:53:27.746Z,100905.69
2023-08-30T23:55:54.354Z,100899.34
2023-08-30T23:58:24.390Z,100891.31
